Time;durP1;ratioP1;P1;durP2;ratioP2;P2;SDS_P1;SDS_P2;PMS_P1;PMS_P2;Temp;Humidity;BMP_temperature;BMP_pressure;BME280_temperature;BME280_humidity;BME280_pressure;Samples;Min_cycle;Max_cycle;Signal;HPM_P1;HPM_P2
2024/01/13 00:02:23;;;;;;;12.5;7.7;;;;;;;-1.36;78.31;99036.666666667;;;;
2024/01/13 00:12:23;;;;;;;16.6;8.5;;;;;;;-1.35;78.76;99030;;;;
2024/01/13 00:22:23;;;;;;;16.6;8.5;;;;;;;-1.34;79.31;99028.333333333;;;;
2024/01/13 00:33:23;;;;;;;16.6;8.5;;;;;;;-1.4;80.12;99031.666666667;;;;
2024/01/13 00:43:23;;;;;;;19.2;9.5;;;;;;;-1.4;80.7;99026.666666667;;;;
2024/01/13 00:53:23;;;;;;;19.2;9.5;;;;;;;-1.56;82.25;99018.333333333;;;;
2024/01/13 01:04:23;;;;;;;18.4;8.5;;;;;;;-1.63;82.64;99016.666666667;;;;
2024/01/13 01:15:23;;;;;;;18.4;8.5;;;;;;;-1.59;83.39;99011.666666667;;;;
2024/01/13 01:26:23;;;;;;;18.4;8.5;;;;;;;-1.64;84.19;99008.333333333;;;;
2024/01/13 01:37:23;;;;;;;19.4;11.1;;;;;;;-1.55;83.73;98993.333333333;;;;
2024/01/13 01:47:23;;;;;;;19.4;11.1;;;;;;;-1.54;83.51;98978.333333333;;;;
2024/01/13 01:58:23;;;;;;;19.4;11.1;;;;;;;-1.55;83.64;98971.666666667;;;;
2024/01/13 02:08:23;;;;;;;14.7;9.4;;;;;;;-1.56;83.61;98955;;;;
2024/01/13 02:19:23;;;;;;;14.7;9.4;;;;;;;-1.5;83.24;98943.333333333;;;;
2024/01/13 02:29:23;;;;;;;14.7;9.4;;;;;;;-1.56;83.68;98933.333333333;;;;
2024/01/13 02:40:23;;;;;;;16;9.1;;;;;;;-1.51;83.63;98926.666666667;;;;
2024/01/13 02:50:23;;;;;;;16;9.1;;;;;;;-1.52;84.12;98916.666666667;;;;
2024/01/13 03:01:23;;;;;;;16;9.1;;;;;;;-1.46;84.14;98908.333333333;;;;
2024/01/13 03:11:23;;;;;;;18.3;9.3;;;;;;;-1.41;84.19;98916.666666667;;;;
2024/01/13 03:21:24;;;;;;;18.3;9.3;;;;;;;-1.35;84.26;98908.333333333;;;;
2024/01/13 03:31:23;;;;;;;18.3;9.3;;;;;;;-1.34;83.95;98900;;;;
2024/01/13 03:42:23;;;;;;;12.6;7.4;;;;;;;-1.25;83.59;98885;;;;
2024/01/13 03:53:23;;;;;;;12.6;7.4;;;;;;;-1.16;83.53;98865;;;;
2024/01/13 04:03:23;;;;;;;12.6;7.4;;;;;;;-1.15;83.28;98865;;;;
2024/01/13 04:13:24;;;;;;;11.7;7.1;;;;;;;-1.13;83.25;98855;;;;
2024/01/13 04:23:23;;;;;;;11.7;7.1;;;;;;;-1.09;83.17;98855;;;;
2024/01/13 04:34:23;;;;;;;11.2;6.6;;;;;;;-0.99;83.02;98861.666666667;;;;
2024/01/13 04:44:23;;;;;;;11.2;6.6;;;;;;;-0.98;83.33;98853.333333333;;;;
2024/01/13 04:55:23;;;;;;;11.2;6.6;;;;;;;-0.94;83.12;98853.333333333;;;;
2024/01/13 05:06:23;;;;;;;10.2;6.3;;;;;;;-0.84;82.7;98836.666666667;;;;
2024/01/13 05:16:23;;;;;;;10.2;6.3;;;;;;;-0.86;82.21;98830;;;;
2024/01/13 05:27:23;;;;;;;10.2;6.3;;;;;;;-0.84;82.57;98811.666666667;;;;
2024/01/13 05:38:23;;;;;;;10.2;5.3;;;;;;;-0.86;82.99;98796.666666667;;;;
2024/01/13 05:49:23;;;;;;;10.2;5.3;;;;;;;-0.77;82.76;98801.666666667;;;;
2024/01/13 05:59:23;;;;;;;10.2;5.3;;;;;;;-0.71;82.57;98815;;;;
2024/01/13 06:09:23;;;;;;;13.2;7.5;;;;;;;-0.66;82.42;98820;;;;
2024/01/13 06:19:23;;;;;;;13.2;7.5;;;;;;;-0.54;82.36;98835;;;;
2024/01/13 06:30:23;;;;;;;13.2;7.5;;;;;;;-0.47;82.22;98833.333333333;;;;
2024/01/13 06:40:24;;;;;;;11.8;6.4;;;;;;;-0.5;82.41;98818.333333333;;;;
2024/01/13 06:51:23;;;;;;;11.8;6.4;;;;;;;-0.39;82.28;98811.666666667;;;;
2024/01/13 07:02:23;;;;;;;11.8;6.4;;;;;;;-0.31;82.21;98811.666666667;;;;
2024/01/13 07:13:23;;;;;;;13.5;6.6;;;;;;;-0.27;82.37;98811.666666667;;;;
2024/01/13 07:23:23;;;;;;;13.5;6.6;;;;;;;-0.2;82.44;98806.666666667;;;;
2024/01/13 07:34:23;;;;;;;11.2;6.4;;;;;;;-0.25;82.68;98810;;;;
2024/01/13 07:45:23;;;;;;;11.2;6.4;;;;;;;-0.07;82.38;98820;;;;
2024/01/13 07:55:23;;;;;;;11.2;6.4;;;;;;;-0.03;82.52;98811.666666667;;;;
2024/01/13 08:06:23;;;;;;;11.9;6.8;;;;;;;0.04;82.48;98813.333333333;;;;
2024/01/13 08:17:25;;;;;;;11.9;6.8;;;;;;;0.16;81.87;98805;;;;
2024/01/13 08:27:25;;;;;;;11.9;6.8;;;;;;;0.19;81.25;98800;;;;
2024/01/13 08:37:23;;;;;;;10.3;6.6;;;;;;;0.41;80.82;98786.666666667;;;;
2024/01/13 08:47:24;;;;;;;10.3;6.6;;;;;;;0.44;80.39;98781.666666667;;;;
2024/01/13 08:57:24;;;;;;;10.3;6.6;;;;;;;0.39;80.01;98783.333333333;;;;
2024/01/13 09:08:23;;;;;;;11.9;6.7;;;;;;;0.65;79.44;98781.666666667;;;;
2024/01/13 09:18:23;;;;;;;11.9;6.7;;;;;;;0.87;78.5;98768.333333333;;;;
2024/01/13 09:28:23;;;;;;;11.9;6.7;;;;;;;0.78;77.62;98761.666666667;;;;
2024/01/13 09:39:24;;;;;;;11.4;7.3;;;;;;;0.81;77.4;98753.333333333;;;;
2024/01/13 09:50:24;;;;;;;11.4;7.3;;;;;;;1;76.74;98746.666666667;;;;
2024/01/13 10:01:24;;;;;;;11.4;7.3;;;;;;;1;76.81;98716.666666667;;;;
2024/01/13 10:11:24;;;;;;;13.2;7.2;;;;;;;1.2;76;98710;;;;
2024/01/13 10:22:24;;;;;;;13.2;7.2;;;;;;;1.27;76.01;98700;;;;
2024/01/13 10:33:24;;;;;;;13;6.8;;;;;;;1.65;75.25;98686.666666667;;;;
2024/01/13 10:44:24;;;;;;;13;6.8;;;;;;;1.5;74.78;98681.666666667;;;;
2024/01/13 10:54:25;;;;;;;13;6.8;;;;;;;1.43;75.07;98665;;;;
2024/01/13 11:05:24;;;;;;;10.4;5.2;;;;;;;1.47;74.65;98666.666666667;;;;
2024/01/13 11:16:24;;;;;;;10.4;5.2;;;;;;;1.36;75.07;98643.333333333;;;;
2024/01/13 11:26:24;;;;;;;10.4;5.2;;;;;;;1.32;74.32;98625;;;;
2024/01/13 11:36:24;;;;;;;8.6;5.2;;;;;;;1.23;75.02;98620;;;;
2024/01/13 11:47:24;;;;;;;8.6;5.2;;;;;;;1.25;74.82;98603.333333333;;;;
2024/01/13 11:57:24;;;;;;;8.6;5.2;;;;;;;1.36;74.54;98588.333333333;;;;
2024/01/13 12:08:24;;;;;;;11;6;;;;;;;1.18;74.85;98563.333333333;;;;
2024/01/13 12:19:24;;;;;;;11;6;;;;;;;1.14;75.13;98543.333333333;;;;
2024/01/13 12:30:24;;;;;;;11;6;;;;;;;1.05;75.38;98538.333333333;;;;
2024/01/13 12:40:24;;;;;;;12.5;6;;;;;;;1.08;75.07;98530;;;;
2024/01/13 12:50:24;;;;;;;12.5;6;;;;;;;1.13;75.12;98510;;;;
2024/01/13 13:01:24;;;;;;;12.5;6;;;;;;;1.1;74.88;98500;;;;
2024/01/13 13:12:24;;;;;;;11.7;6.1;;;;;;;0.91;74.58;98498.333333333;;;;
2024/01/13 13:23:24;;;;;;;11.7;6.1;;;;;;;0.91;74.78;98493.333333333;;;;
2024/01/13 13:33:24;;;;;;;15.7;7.2;;;;;;;0.74;74.9;98491.666666667;;;;
2024/01/13 13:43:26;;;;;;;15.7;7.2;;;;;;;0.7;75.44;98495;;;;
2024/01/13 13:53:24;;;;;;;15.7;7.2;;;;;;;0.8;75.75;98450;;;;
2024/01/13 14:04:24;;;;;;;15.7;8.3;;;;;;;0.63;76.07;98451.666666667;;;;
2024/01/13 14:14:24;;;;;;;15.7;8.3;;;;;;;0.61;76.51;98441.666666667;;;;
2024/01/13 14:25:25;;;;;;;15.7;8.3;;;;;;;0.61;76.69;98445;;;;
2024/01/13 14:36:24;;;;;;;19.1;10.8;;;;;;;0.53;77.33;98430;;;;
2024/01/13 14:46:24;;;;;;;19.1;10.8;;;;;;;0.49;77.41;98410;;;;
2024/01/13 14:57:24;;;;;;;19.1;10.8;;;;;;;0.44;77.52;98391.666666667;;;;
2024/01/13 15:08:24;;;;;;;18.7;10.4;;;;;;;0.42;77.24;98380;;;;
2024/01/13 15:18:24;;;;;;;18.7;10.4;;;;;;;0.44;77.27;98386.666666667;;;;
2024/01/13 15:29:27;;;;;;;18.7;10.4;;;;;;;0.27;76.94;98373.333333333;;;;
2024/01/13 15:39:26;;;;;;;15;9.4;;;;;;;0.27;75.58;98358.333333333;;;;
2024/01/13 15:50:24;;;;;;;15;9.4;;;;;;;0.22;76.03;98328.333333333;;;;
2024/01/13 16:01:24;;;;;;;15;9.4;;;;;;;0.12;75.49;98333.333333333;;;;
2024/01/13 16:11:25;;;;;;;11;5.8;;;;;;;0.07;76.02;98300;;;;
2024/01/13 16:21:24;;;;;;;11;5.8;;;;;;;0.06;75.9;98301.666666667;;;;
2024/01/13 16:32:24;;;;;;;12.3;7.6;;;;;;;-0.05;75.96;98296.666666667;;;;
2024/01/13 16:43:24;;;;;;;12.3;7.6;;;;;;;-0.02;75.76;98298.333333333;;;;
2024/01/13 16:54:24;;;;;;;12.3;7.6;;;;;;;-0.1;75.64;98295;;;;
2024/01/13 17:04:24;;;;;;;7.8;4.5;;;;;;;-0.07;74.84;98268.333333333;;;;
2024/01/13 17:15:24;;;;;;;7.8;4.5;;;;;;;-0.03;73.69;98258.333333333;;;;
2024/01/13 17:26:24;;;;;;;7.8;4.5;;;;;;;-0.03;73.79;98256.666666667;;;;
2024/01/13 17:37:24;;;;;;;5.2;3.1;;;;;;;-0.05;73.71;98246.666666667;;;;
2024/01/13 17:48:24;;;;;;;5.2;3.1;;;;;;;-0.09;73.92;98235;;;;
2024/01/13 17:59:24;;;;;;;5.2;3.1;;;;;;;-0.07;74.65;98228.333333333;;;;
2024/01/13 18:09:24;;;;;;;6.8;3.7;;;;;;;-0.12;74.75;98213.333333333;;;;
2024/01/13 18:19:24;;;;;;;6.8;3.7;;;;;;;-0.21;75.44;98193.333333333;;;;
2024/01/13 18:29:24;;;;;;;6.8;3.7;;;;;;;-0.16;74.72;98175;;;;
2024/01/13 18:40:24;;;;;;;7.4;4.6;;;;;;;-0.1;74.62;98171.666666667;;;;
2024/01/13 18:50:24;;;;;;;7.4;4.6;;;;;;;-0.18;74.45;98146.666666667;;;;
2024/01/13 19:00:24;;;;;;;7.4;4.6;;;;;;;-0.21;74.3;98136.666666667;;;;
2024/01/13 19:10:25;;;;;;;6.4;4;;;;;;;-0.21;74.02;98140;;;;
2024/01/13 19:21:24;;;;;;;6.4;4;;;;;;;-0.18;73.98;98140;;;;
2024/01/13 19:32:24;;;;;;;6.6;4.2;;;;;;;-0.21;74.13;98120;;;;
2024/01/13 19:42:24;;;;;;;6.6;4.2;;;;;;;-0.24;74.05;98121.666666667;;;;
2024/01/13 19:52:24;;;;;;;6.6;4.2;;;;;;;-0.23;73.69;98100;;;;
2024/01/13 20:03:24;;;;;;;7.1;3.4;;;;;;;-0.3;73.51;98078.333333333;;;;
2024/01/13 20:13:24;;;;;;;7.1;3.4;;;;;;;-0.25;73.93;98081.666666667;;;;
2024/01/13 20:24:24;;;;;;;7.1;3.4;;;;;;;-0.25;73.76;98078.333333333;;;;
2024/01/13 20:34:24;;;;;;;6.6;4.3;;;;;;;-0.27;73.8;98060;;;;
2024/01/13 20:45:25;;;;;;;6.6;4.3;;;;;;;-0.31;73.79;98060;;;;
2024/01/13 20:56:25;;;;;;;6.6;4.3;;;;;;;-0.34;73.63;98040;;;;
2024/01/13 21:06:24;;;;;;;8.5;4.3;;;;;;;-0.35;73.33;98031.666666667;;;;
2024/01/13 21:17:24;;;;;;;8.5;4.3;;;;;;;-0.37;73.59;98013.333333333;;;;
2024/01/13 21:28:24;;;;;;;8.5;4.3;;;;;;;-0.35;73.27;97978.333333333;;;;
2024/01/13 21:38:24;;;;;;;8.5;4.4;;;;;;;-0.5;73.56;97953.333333333;;;;
2024/01/13 21:49:24;;;;;;;8.5;4.4;;;;;;;-0.42;73.67;97951.666666667;;;;
2024/01/13 22:00:24;;;;;;;8.7;4.9;;;;;;;-0.4;73.79;97930;;;;
2024/01/13 22:11:24;;;;;;;8.7;4.9;;;;;;;-0.58;75.53;97905;;;;
2024/01/13 22:21:24;;;;;;;8.7;4.9;;;;;;;-0.65;75.74;97893.333333333;;;;
2024/01/13 22:32:24;;;;;;;11.1;5.7;;;;;;;-0.73;76.18;97881.666666667;;;;
2024/01/13 22:42:24;;;;;;;11.1;5.7;;;;;;;-0.76;76.26;97871.666666667;;;;
2024/01/13 22:52:24;;;;;;;11.1;5.7;;;;;;;-0.8;76.66;97871.666666667;;;;
2024/01/13 23:03:24;;;;;;;9;5.8;;;;;;;-0.84;77.12;97870;;;;
2024/01/13 23:14:24;;;;;;;9;5.8;;;;;;;-0.75;77.75;97861.666666667;;;;
2024/01/13 23:24:24;;;;;;;9;5.8;;;;;;;-0.8;78.04;97848.333333333;;;;
2024/01/13 23:34:24;;;;;;;16.9;8.7;;;;;;;-0.81;78.26;97835;;;;
2024/01/13 23:44:24;;;;;;;16.9;8.7;;;;;;;-0.73;78.37;97840;;;;
2024/01/13 23:55:25;;;;;;;16.9;8.7;;;;;;;-0.74;78.8;97830;;;;
